createdAt,value
2023-04-25T00:00:28.224Z,999.63
2023-04-25T00:01:28.327Z,999.60
2023-04-25T00:02:28.620Z,999.64
2023-04-25T00:03:28.756Z,999.63
2023-04-25T00:04:28.972Z,999.60
2023-04-25T00:05:28.912Z,999.70
2023-04-25T00:06:29.145Z,999.71
2023-04-25T00:07:29.281Z,999.67
2023-04-25T00:08:29.382Z,999.71
2023-04-25T00:09:29.480Z,999.67
2023-04-25T00:10:29.696Z,999.66
2023-04-25T00:11:29.783Z,999.63
2023-04-25T00:12:30.020Z,999.69
2023-04-25T00:13:30.136Z,999.63
2023-04-25T00:14:30.239Z,999.62
2023-04-25T00:15:30.332Z,999.64
2023-04-25T00:16:30.571Z,999.67
2023-04-25T00:17:30.685Z,999.60
2023-04-25T00:18:30.838Z,999.60
2023-04-25T00:19:30.953Z,999.54
2023-04-25T00:20:31.083Z,999.59
2023-04-25T00:21:31.172Z,999.59
2023-04-25T00:22:31.394Z,999.60
2023-04-25T00:23:31.493Z,999.56
2023-04-25T00:24:31.585Z,999.58
2023-04-25T00:25:31.680Z,999.56
2023-04-25T00:26:31.795Z,999.53
2023-04-25T00:27:31.933Z,999.59
2023-04-25T00:28:32.044Z,999.63
2023-04-25T00:29:32.153Z,999.58
2023-04-25T00:30:32.270Z,999.59
2023-04-25T00:31:32.414Z,999.60
2023-04-25T00:32:32.539Z,999.59
2023-04-25T00:33:32.638Z,999.62
2023-04-25T00:34:32.748Z,999.58
2023-04-25T00:35:32.847Z,999.59
2023-04-25T00:36:33.068Z,999.63
2023-04-25T00:37:33.165Z,999.56
2023-04-25T00:38:33.241Z,999.58
2023-04-25T00:39:33.346Z,999.54
2023-04-25T00:40:33.426Z,999.58
2023-04-25T00:41:33.537Z,999.51
2023-04-25T00:42:33.651Z,999.52
2023-04-25T00:43:33.734Z,999.58
2023-04-25T00:44:33.838Z,999.54
2023-04-25T00:45:33.925Z,999.53
2023-04-25T00:46:34.165Z,999.48
2023-04-25T00:47:34.304Z,999.52
2023-04-25T00:48:34.433Z,999.56
2023-04-25T00:49:34.484Z,999.49
2023-04-25T00:50:34.685Z,999.55
2023-04-25T00:51:34.779Z,999.56
2023-04-25T00:52:34.892Z,999.55
2023-04-25T00:53:34.978Z,999.59
2023-04-25T00:54:35.085Z,999.56
2023-04-25T00:55:35.170Z,999.56
2023-04-25T00:56:35.411Z,999.54
2023-04-25T00:57:35.522Z,999.58
2023-04-25T00:58:35.617Z,999.64
2023-04-25T00:59:35.715Z,999.51
2023-04-25T01:00:35.877Z,999.56
2023-04-25T01:01:35.960Z,999.59
2023-04-25T01:02:36.173Z,999.55
2023-04-25T01:03:36.483Z,999.52
2023-04-25T01:04:36.417Z,999.52
2023-04-25T01:05:36.578Z,999.51
2023-04-25T01:06:36.685Z,999.50
2023-04-25T01:07:36.888Z,999.46
2023-04-25T01:08:36.994Z,999.51
2023-04-25T01:09:37.113Z,999.47
2023-04-25T01:10:37.207Z,999.46
2023-04-25T01:11:37.430Z,999.45
2023-04-25T01:12:37.532Z,999.42
2023-04-25T01:13:37.646Z,999.43
2023-04-25T01:14:37.743Z,999.39
2023-04-25T01:15:37.846Z,999.38
2023-04-25T01:16:37.981Z,999.35
2023-04-25T01:17:38.085Z,999.41
2023-04-25T01:18:38.203Z,999.35
2023-04-25T01:19:38.264Z,999.38
2023-04-25T01:20:38.398Z,999.29
2023-04-25T01:21:38.485Z,999.29
2023-04-25T01:22:38.623Z,999.30
2023-04-25T01:23:38.719Z,999.31
2023-04-25T01:24:38.817Z,999.34
2023-04-25T01:25:38.909Z,999.29
2023-04-25T01:26:39.005Z,999.30
2023-04-25T01:27:39.231Z,999.26
2023-04-25T01:28:39.322Z,999.38
2023-04-25T01:29:39.525Z,999.34
2023-04-25T01:30:39.608Z,999.31
2023-04-25T01:31:39.849Z,999.32
2023-04-25T01:32:39.944Z,999.34
2023-04-25T01:33:40.046Z,999.33
2023-04-25T01:34:40.113Z,999.31
2023-04-25T01:35:40.333Z,999.31
2023-04-25T01:36:40.423Z,999.37
2023-04-25T01:37:40.659Z,999.36
2023-04-25T01:38:40.762Z,999.30
2023-04-25T01:39:40.895Z,999.33
2023-04-25T01:40:40.986Z,999.38
2023-04-25T01:41:41.210Z,999.36
2023-04-25T01:42:41.324Z,999.34
2023-04-25T01:43:41.423Z,999.46
2023-04-25T01:44:41.526Z,999.39
2023-04-25T01:45:41.661Z,999.40
2023-04-25T01:46:41.782Z,999.40
2023-04-25T01:47:41.921Z,999.41
2023-04-25T01:48:42.029Z,999.37
2023-04-25T01:49:42.238Z,999.39
2023-04-25T01:50:42.344Z,999.36
2023-04-25T01:51:42.561Z,999.41
2023-04-25T01:52:42.839Z,999.33
2023-04-25T01:53:42.831Z,999.40
2023-04-25T01:54:42.929Z,999.41
2023-04-25T01:55:43.050Z,999.37
2023-04-25T01:56:43.146Z,999.36
2023-04-25T01:57:43.280Z,999.37
2023-04-25T01:58:43.376Z,999.36
2023-04-25T01:59:43.496Z,999.35
2023-04-25T02:00:43.612Z,999.37
2023-04-25T02:01:43.749Z,999.38
2023-04-25T02:02:44.120Z,999.40
2023-04-25T02:03:44.230Z,999.39
2023-04-25T02:04:44.328Z,999.37
2023-04-25T02:05:44.337Z,999.39
2023-04-25T02:06:44.440Z,999.38
2023-04-25T02:07:44.574Z,999.38
2023-04-25T02:08:44.664Z,999.28
2023-04-25T02:09:44.774Z,999.38
2023-04-25T02:10:44.864Z,999.31
2023-04-25T02:11:44.979Z,999.32
2023-04-25T02:12:45.097Z,999.46
2023-04-25T02:13:45.192Z,999.45
2023-04-25T02:14:45.300Z,999.37
2023-04-25T02:15:45.454Z,999.36
2023-04-25T02:16:45.587Z,999.32
2023-04-25T02:17:45.710Z,999.36
2023-04-25T02:18:45.782Z,999.35
2023-04-25T02:19:45.885Z,999.34
2023-04-25T02:20:45.983Z,999.34
2023-04-25T02:21:46.187Z,999.44
2023-04-25T02:22:46.284Z,999.42
2023-04-25T02:23:46.404Z,999.43
2023-04-25T02:24:46.492Z,999.41
2023-04-25T02:25:46.686Z,999.38
2023-04-25T02:26:46.770Z,999.37
2023-04-25T02:27:46.990Z,999.39
2023-04-25T02:28:47.075Z,999.38
2023-04-25T02:29:47.178Z,999.35
2023-04-25T02:30:47.268Z,999.35
2023-04-25T02:31:47.592Z,999.39
2023-04-25T02:32:47.661Z,999.39
2023-04-25T02:33:47.782Z,999.29
2023-04-25T02:34:47.845Z,999.31
2023-04-25T02:35:48.054Z,999.26
2023-04-25T02:36:48.179Z,999.34
2023-04-25T02:37:48.281Z,999.36
2023-04-25T02:38:48.391Z,999.28
2023-04-25T02:39:48.495Z,999.32
2023-04-25T02:40:48.589Z,999.31
2023-04-25T02:41:48.687Z,999.35
2023-04-25T02:42:48.832Z,999.31
2023-04-25T02:43:49.347Z,999.39
2023-04-25T02:44:49.070Z,999.33
2023-04-25T02:45:49.184Z,999.35
2023-04-25T02:46:49.280Z,999.35
2023-04-25T02:47:49.472Z,999.33
2023-04-25T02:48:49.531Z,999.32
2023-04-25T02:49:49.628Z,999.37
2023-04-25T02:50:49.752Z,999.36
2023-04-25T02:51:49.852Z,999.40
2023-04-25T02:52:49.969Z,999.32
2023-04-25T02:53:50.227Z,999.31
2023-04-25T02:54:50.157Z,999.34
2023-04-25T02:55:50.262Z,999.35
2023-04-25T02:56:50.354Z,999.29
2023-04-25T02:57:50.471Z,999.37
2023-04-25T02:58:50.573Z,999.36
2023-04-25T02:59:50.691Z,999.31
2023-04-25T03:00:50.840Z,999.30
2023-04-25T03:01:50.917Z,999.27
2023-04-25T03:02:51.077Z,999.27
2023-04-25T03:03:51.404Z,999.26
2023-04-25T03:04:51.294Z,999.25
2023-04-25T03:05:51.361Z,999.26
2023-04-25T03:06:51.472Z,999.30
2023-04-25T03:07:51.582Z,999.31
2023-04-25T03:08:51.670Z,999.31
2023-04-25T03:09:51.889Z,999.29
2023-04-25T03:10:51.960Z,999.27
2023-04-25T03:11:52.054Z,999.27
2023-04-25T03:12:52.188Z,999.25
2023-04-25T03:13:52.637Z,999.28
2023-04-25T03:14:52.413Z,999.25
2023-04-25T03:15:52.531Z,999.25
2023-04-25T03:16:52.685Z,999.27
2023-04-25T03:17:52.797Z,999.29
2023-04-25T03:18:52.880Z,999.27
2023-04-25T03:19:52.993Z,999.28
2023-04-25T03:20:53.082Z,999.30
2023-04-25T03:21:53.191Z,999.35
2023-04-25T03:22:53.323Z,999.31
2023-04-25T03:23:53.506Z,999.33
2023-04-25T03:24:53.564Z,999.35
2023-04-25T03:25:53.685Z,999.33
2023-04-25T03:26:53.771Z,999.34
2023-04-25T03:27:53.911Z,999.37
2023-04-25T03:28:54.009Z,999.31
2023-04-25T03:29:54.130Z,999.31
2023-04-25T03:30:54.267Z,999.30
2023-04-25T03:31:54.426Z,999.33
2023-04-25T03:32:54.658Z,999.34
2023-04-25T03:33:54.665Z,999.31
2023-04-25T03:34:54.768Z,999.37
2023-04-25T03:35:54.849Z,999.35
2023-04-25T03:36:54.952Z,999.44
2023-04-25T03:37:55.074Z,999.34
2023-04-25T03:38:55.180Z,999.37
2023-04-25T03:39:55.285Z,999.35
2023-04-25T03:40:55.402Z,999.39
2023-04-25T03:41:55.498Z,999.36
2023-04-25T03:42:55.604Z,999.34
2023-04-25T03:43:55.743Z,999.37
2023-04-25T03:44:55.854Z,999.37
2023-04-25T03:45:56.044Z,999.38
2023-04-25T03:46:56.125Z,999.36
2023-04-25T03:47:56.320Z,999.33
2023-04-25T03:48:56.408Z,999.40
2023-04-25T03:49:56.543Z,999.37
2023-04-25T03:50:56.658Z,999.38
2023-04-25T03:51:56.775Z,999.37
2023-04-25T03:52:56.898Z,999.43
2023-04-25T03:53:56.983Z,999.43
2023-04-25T03:54:57.090Z,999.42
2023-04-25T03:55:57.208Z,999.42
2023-04-25T03:56:57.308Z,999.44
2023-04-25T03:57:57.411Z,999.47
2023-04-25T03:58:57.502Z,999.43
2023-04-25T03:59:57.722Z,999.57
2023-04-25T04:00:57.855Z,999.55
2023-04-25T04:01:58.058Z,999.45
2023-04-25T04:02:58.326Z,999.48
2023-04-25T04:03:58.755Z,999.52
2023-04-25T04:04:58.703Z,999.50
2023-04-25T04:05:58.683Z,999.53
2023-04-25T04:06:58.778Z,999.49
2023-04-25T04:07:58.901Z,999.53
2023-04-25T04:08:58.998Z,999.53
2023-04-25T04:09:59.219Z,999.56
2023-04-25T04:10:59.312Z,999.56
2023-04-25T04:11:59.418Z,999.54
2023-04-25T04:12:59.525Z,999.57
2023-04-25T04:13:59.692Z,999.60
2023-04-25T04:14:59.776Z,999.58
2023-04-25T04:15:59.863Z,999.59
2023-04-25T04:16:59.945Z,999.56
2023-04-25T04:18:00.147Z,999.62
2023-04-25T04:19:00.151Z,999.60
2023-04-25T04:20:00.370Z,999.65
2023-04-25T04:21:00.474Z,999.65
2023-04-25T04:22:00.585Z,999.63
2023-04-25T04:23:00.718Z,999.66
2023-04-25T04:24:00.814Z,999.62
2023-04-25T04:25:00.913Z,999.61
2023-04-25T04:26:01.046Z,999.67
2023-04-25T04:27:01.173Z,999.66
2023-04-25T04:28:01.358Z,999.67
2023-04-25T04:29:01.361Z,999.68
2023-04-25T04:30:01.465Z,999.70
2023-04-25T04:31:01.577Z,999.69
2023-04-25T04:32:01.695Z,999.70
2023-04-25T04:33:01.920Z,999.71
2023-04-25T04:34:01.942Z,999.72
2023-04-25T04:35:02.052Z,999.72
2023-04-25T04:36:02.141Z,999.66
2023-04-25T04:37:02.265Z,999.70
2023-04-25T04:38:02.380Z,999.67
2023-04-25T04:39:02.490Z,999.71
2023-04-25T04:40:02.601Z,999.70
2023-04-25T04:41:02.703Z,999.72
2023-04-25T04:42:02.818Z,999.71
2023-04-25T04:43:02.921Z,999.73
2023-04-25T04:44:03.025Z,999.71
2023-04-25T04:45:03.112Z,999.70
2023-04-25T04:46:03.324Z,999.76
2023-04-25T04:47:03.511Z,999.75
2023-04-25T04:48:03.672Z,999.80
2023-04-25T04:49:03.719Z,999.79
2023-04-25T04:50:03.834Z,999.81
2023-04-25T04:51:03.921Z,999.82
2023-04-25T04:52:04.042Z,999.80
2023-04-25T04:53:04.189Z,999.77
2023-04-25T04:54:04.293Z,999.76
2023-04-25T04:55:04.404Z,999.74
2023-04-25T04:56:04.509Z,999.72
2023-04-25T04:57:04.620Z,999.72
2023-04-25T04:58:04.764Z,999.74
2023-04-25T04:59:04.851Z,999.73
2023-04-25T05:00:05.039Z,999.72
2023-04-25T05:01:05.176Z,999.69
2023-04-25T05:02:05.248Z,999.70
2023-04-25T05:03:05.430Z,999.70
2023-04-25T05:04:05.686Z,999.75
2023-04-25T05:05:05.688Z,999.72
2023-04-25T05:06:05.821Z,999.71
2023-04-25T05:07:05.918Z,999.76
2023-04-25T05:08:06.044Z,999.77
2023-04-25T05:09:13.178Z,999.81
2023-04-25T05:10:06.277Z,999.79
2023-04-25T05:11:06.388Z,999.78
2023-04-25T05:12:08.257Z,999.82
2023-04-25T05:13:06.702Z,999.81
2023-04-25T05:14:06.782Z,999.85
2023-04-25T05:15:06.994Z,999.80
2023-04-25T05:16:07.110Z,999.89
2023-04-25T05:17:07.222Z,999.82
2023-04-25T05:18:07.441Z,999.82
2023-04-25T05:19:07.402Z,999.87
2023-04-25T05:20:07.470Z,999.83
2023-04-25T05:21:07.568Z,999.85
2023-04-25T05:22:07.654Z,999.89
2023-04-25T05:23:07.770Z,999.88
2023-04-25T05:24:07.870Z,999.90
2023-04-25T05:25:07.981Z,999.87
2023-04-25T05:26:08.044Z,999.91
2023-04-25T05:27:08.245Z,999.92
2023-04-25T05:28:08.351Z,999.94
2023-04-25T05:29:08.472Z,999.89
2023-04-25T05:30:08.557Z,999.94
2023-04-25T05:31:08.673Z,999.91
2023-04-25T05:32:08.843Z,999.88
2023-04-25T05:33:08.942Z,999.93
2023-04-25T05:34:09.102Z,999.87
2023-04-25T05:35:09.274Z,999.88
2023-04-25T05:36:09.347Z,999.87
2023-04-25T05:37:09.458Z,999.88
2023-04-25T05:38:09.564Z,999.94
2023-04-25T05:39:09.663Z,999.90
2023-04-25T05:40:09.764Z,999.92
2023-04-25T05:41:09.843Z,999.87
2023-04-25T05:42:09.951Z,999.90
2023-04-25T05:43:10.060Z,999.95
2023-04-25T05:44:10.137Z,999.94
2023-04-25T05:45:10.352Z,999.94
2023-04-25T05:46:10.486Z,999.94
2023-04-25T05:47:10.553Z,999.94
2023-04-25T05:48:10.720Z,999.96
2023-04-25T05:49:10.839Z,1000.02
2023-04-25T05:50:10.939Z,1000.01
2023-04-25T05:51:11.034Z,1000.00
2023-04-25T05:52:11.113Z,1000.02
2023-04-25T05:53:11.394Z,1000.07
2023-04-25T05:54:11.464Z,1000.10
2023-04-25T05:55:11.677Z,1000.05
2023-04-25T05:56:11.768Z,1000.06
2023-04-25T05:57:11.880Z,1000.06
2023-04-25T05:58:12.005Z,1000.10
2023-04-25T05:59:12.103Z,1000.03
2023-04-25T06:00:12.206Z,1000.10
2023-04-25T06:01:12.388Z,1000.10
2023-04-25T06:02:12.552Z,1000.10
2023-04-25T06:03:12.866Z,1000.12
2023-04-25T06:04:13.253Z,1000.14
2023-04-25T06:05:13.134Z,1000.13
2023-04-25T06:06:13.195Z,1000.12
2023-04-25T06:07:13.244Z,1000.19
2023-04-25T06:08:13.338Z,1000.16
2023-04-25T06:09:14.474Z,1000.18
2023-04-25T06:10:13.525Z,1000.22
2023-04-25T06:11:13.638Z,1000.18
2023-04-25T06:12:13.706Z,1000.19
2023-04-25T06:13:13.909Z,1000.22
2023-04-25T06:14:14.011Z,1000.26
2023-04-25T06:15:27.281Z,1000.21
2023-04-25T06:16:15.312Z,1000.20
2023-04-25T06:17:14.392Z,1000.22
2023-04-25T06:18:14.507Z,1000.17
2023-04-25T06:19:14.668Z,1000.22
2023-04-25T06:20:14.769Z,1000.22
2023-04-25T06:21:14.861Z,1000.21
2023-04-25T06:22:14.930Z,1000.19
2023-04-25T06:23:15.144Z,1000.16
2023-04-25T06:24:15.219Z,1000.18
2023-04-25T06:25:15.322Z,1000.18
2023-04-25T06:26:15.394Z,1000.21
2023-04-25T06:27:17.079Z,1000.20
2023-04-25T06:28:15.687Z,1000.23
2023-04-25T06:29:15.777Z,1000.22
2023-04-25T06:30:15.857Z,1000.25
2023-04-25T06:31:15.994Z,1000.15
2023-04-25T06:32:16.088Z,1000.19
2023-04-25T06:33:16.243Z,1000.20
2023-04-25T06:34:16.289Z,1000.24
2023-04-25T06:35:16.367Z,1000.25
2023-04-25T06:36:16.461Z,1000.26
2023-04-25T06:37:16.626Z,1000.22
2023-04-25T06:38:16.721Z,1000.24
2023-04-25T06:39:16.812Z,1000.22
2023-04-25T06:40:17.044Z,1000.24
2023-04-25T06:41:17.067Z,1000.23
2023-04-25T06:42:17.159Z,1000.28
2023-04-25T06:43:17.330Z,1000.20
2023-04-25T06:44:17.321Z,1000.17
2023-04-25T06:45:17.549Z,1000.27
2023-04-25T06:46:17.622Z,1000.30
2023-04-25T06:47:17.800Z,1000.25
2023-04-25T06:48:17.909Z,1000.31
2023-04-25T06:49:18.063Z,1000.34
2023-04-25T06:50:18.161Z,1000.32
2023-04-25T06:51:18.264Z,1000.31
2023-04-25T06:52:18.334Z,1000.30
2023-04-25T06:53:18.570Z,1000.27
2023-04-25T06:54:18.667Z,1000.34
2023-04-25T06:55:18.766Z,1000.29
2023-04-25T06:56:18.868Z,1000.29
2023-04-25T06:57:19.008Z,1000.32
2023-04-25T06:58:19.123Z,1000.34
2023-04-25T06:59:19.238Z,1000.31
2023-04-25T07:00:19.360Z,1000.33
2023-04-25T07:01:19.539Z,1000.28
2023-04-25T07:02:19.739Z,1000.35
2023-04-25T07:03:19.911Z,1000.31
2023-04-25T07:04:20.196Z,1000.41
2023-04-25T07:05:20.159Z,1000.40
2023-04-25T07:06:20.252Z,1000.36
2023-04-25T07:07:20.367Z,1000.39
2023-04-25T07:08:20.475Z,1000.43
2023-04-25T07:09:20.611Z,1000.43
2023-04-25T07:10:20.693Z,1000.42
2023-04-25T07:11:20.893Z,1000.44
2023-04-25T07:12:20.986Z,1000.44
2023-04-25T07:13:21.223Z,1000.42
2023-04-25T07:14:21.310Z,1000.44
2023-04-25T07:15:21.436Z,1000.51
2023-04-25T07:16:21.536Z,1000.49
2023-04-25T07:17:21.718Z,1000.49
2023-04-25T07:18:21.834Z,1000.52
2023-04-25T07:19:21.971Z,1000.50
2023-04-25T07:20:22.058Z,1000.52
2023-04-25T07:21:22.176Z,1000.57
2023-04-25T07:22:22.281Z,1000.66
2023-04-25T07:23:22.505Z,1000.63
2023-04-25T07:24:22.630Z,1000.65
2023-04-25T07:25:22.741Z,1000.63
2023-04-25T07:26:22.831Z,1000.69
2023-04-25T07:27:22.940Z,1000.76
2023-04-25T07:28:23.059Z,1000.70
2023-04-25T07:29:23.244Z,1000.72
2023-04-25T07:30:23.337Z,1000.75
2023-04-25T07:31:23.479Z,1000.80
2023-04-25T07:32:23.699Z,1000.68
2023-04-25T07:33:23.669Z,1000.66
2023-04-25T07:34:23.774Z,1000.72
2023-04-25T07:35:23.878Z,1000.69
2023-04-25T07:36:23.973Z,1000.71
2023-04-25T07:37:24.097Z,1000.79
2023-04-25T07:38:24.219Z,1000.77
2023-04-25T07:39:24.317Z,1000.72
2023-04-25T07:40:24.473Z,1000.76
2023-04-25T07:41:24.626Z,1000.78
2023-04-25T07:42:24.714Z,1000.78
2023-04-25T07:43:24.934Z,1000.79
2023-04-25T07:44:25.017Z,1000.81
2023-04-25T07:45:25.108Z,1000.81
2023-04-25T07:46:25.271Z,1000.80
2023-04-25T07:47:25.363Z,1000.81
2023-04-25T07:48:25.439Z,1000.83
2023-04-25T07:49:25.539Z,1000.74
2023-04-25T07:50:25.604Z,1000.77
2023-04-25T07:51:25.704Z,1000.78
2023-04-25T07:52:25.782Z,1000.77
2023-04-25T07:53:25.998Z,1000.86
2023-04-25T07:54:26.077Z,1000.86
2023-04-25T07:55:26.161Z,1000.91
2023-04-25T07:56:26.241Z,1000.93
2023-04-25T07:57:26.336Z,1000.93
2023-04-25T07:58:26.452Z,1000.98
2023-04-25T07:59:29.332Z,1001.01
2023-04-25T08:00:26.671Z,1000.95
2023-04-25T08:01:26.744Z,1001.03
2023-04-25T08:02:26.872Z,1001.00
2023-04-25T08:03:27.134Z,1001.03
2023-04-25T08:04:27.356Z,1001.04
2023-04-25T08:05:27.342Z,1001.00
2023-04-25T08:06:27.421Z,1001.03
2023-04-25T08:07:27.436Z,1000.99
2023-04-25T08:08:27.532Z,1000.98
2023-04-25T08:09:27.602Z,1001.01
2023-04-25T08:10:27.670Z,1001.03
2023-04-25T08:11:27.887Z,1001.00
2023-04-25T08:12:27.956Z,1001.02
2023-04-25T08:13:28.064Z,1001.05
2023-04-25T08:14:28.153Z,1001.13
2023-04-25T08:15:28.264Z,1001.09
2023-04-25T08:16:28.491Z,1001.11
2023-04-25T08:17:28.527Z,1001.12
2023-04-25T08:18:28.660Z,1001.14
2023-04-25T08:19:28.711Z,1001.19
2023-04-25T08:20:28.796Z,1001.19
2023-04-25T08:21:28.991Z,1001.14
2023-04-25T08:22:29.083Z,1001.16
2023-04-25T08:23:29.185Z,1001.17
2023-04-25T08:24:29.241Z,1001.09
2023-04-25T08:25:29.405Z,1001.12
2023-04-25T08:26:29.482Z,1001.17
2023-04-25T08:27:29.555Z,1001.16
2023-04-25T08:28:29.643Z,1001.13
2023-04-25T08:29:29.741Z,1001.16
2023-04-25T08:30:29.805Z,1001.18
2023-04-25T08:31:29.864Z,1001.20
2023-04-25T08:32:30.904Z,1001.22
2023-04-25T08:33:30.116Z,1001.23
2023-04-25T08:34:30.179Z,1001.23
2023-04-25T08:35:30.252Z,1001.30
2023-04-25T08:36:39.069Z,1001.25
2023-04-25T08:37:31.481Z,1001.27
2023-04-25T08:38:30.615Z,1001.31
2023-04-25T08:39:30.696Z,1001.32
2023-04-25T08:40:30.717Z,1001.30
2023-04-25T08:41:30.885Z,1001.38
2023-04-25T08:42:31.268Z,1001.37
2023-04-25T08:43:31.074Z,1001.47
2023-04-25T08:44:31.130Z,1001.51
2023-04-25T08:45:31.215Z,1001.44
2023-04-25T08:46:31.289Z,1001.48
2023-04-25T08:47:31.396Z,1001.43
2023-04-25T08:48:31.513Z,1001.52
2023-04-25T08:49:31.546Z,1001.44
2023-04-25T08:50:31.593Z,1001.48
2023-04-25T08:51:31.752Z,1001.45
2023-04-25T08:52:31.825Z,1001.49
2023-04-25T08:53:31.911Z,1001.50
2023-04-25T08:54:35.367Z,1001.49
2023-04-25T08:55:32.107Z,1001.57
2023-04-25T08:56:32.172Z,1001.55
2023-04-25T08:57:32.241Z,1001.55
2023-04-25T08:58:32.303Z,1001.73
2023-04-25T08:59:32.361Z,1001.45
2023-04-25T09:00:32.592Z,1001.60
2023-04-25T09:01:32.504Z,1001.69
2023-04-25T09:02:32.568Z,1001.65
2023-04-25T09:03:32.640Z,1001.72
2023-04-25T09:04:32.581Z,1001.65
2023-04-25T09:05:32.582Z,1001.64
2023-04-25T09:06:32.596Z,1001.64
2023-04-25T09:07:32.616Z,1001.72
2023-04-25T09:08:32.636Z,1001.63
2023-04-25T09:09:32.629Z,1001.66
2023-04-25T09:11:32.722Z,1001.67
2023-04-25T09:12:32.728Z,1001.69
2023-04-25T09:13:32.736Z,1001.66
2023-04-25T09:14:32.974Z,1001.77
2023-04-25T09:15:32.796Z,1001.46
2023-04-25T09:16:33.843Z,1001.54
2023-04-25T09:17:32.930Z,1001.61
2023-04-25T09:18:32.912Z,1001.74
2023-04-25T09:19:40.331Z,1001.57
2023-04-25T09:20:37.635Z,1001.47
2023-04-25T09:21:33.837Z,1001.54
2023-04-25T09:22:32.836Z,1001.76
2023-04-25T09:23:32.836Z,1001.81
2023-04-25T09:24:32.812Z,1001.73
2023-04-25T09:25:32.794Z,1001.65
2023-04-25T09:26:32.783Z,1001.74
2023-04-25T09:27:32.780Z,1001.83
2023-04-25T09:28:32.750Z,1001.79
2023-04-25T09:29:32.755Z,1001.60
2023-04-25T09:30:32.717Z,1001.68
2023-04-25T09:31:32.750Z,1001.74
2023-04-25T09:32:32.734Z,1001.83
2023-04-25T09:33:32.714Z,1001.52
2023-04-25T09:34:32.709Z,1001.53
2023-04-25T09:35:32.737Z,1001.51
2023-04-25T09:36:32.726Z,1001.57
2023-04-25T09:37:32.701Z,1001.60
2023-04-25T09:38:32.723Z,1001.61
2023-04-25T09:39:32.744Z,1001.62
2023-04-25T09:40:32.735Z,1001.60
2023-04-25T09:41:32.751Z,1001.66
2023-04-25T09:42:32.996Z,1001.65
2023-04-25T09:43:32.874Z,1001.66
2023-04-25T09:44:32.942Z,1001.64
2023-04-25T09:45:32.959Z,1001.60
2023-04-25T09:46:33.019Z,1001.62
2023-04-25T09:47:33.033Z,1001.71
2023-04-25T09:48:33.198Z,1001.69
2023-04-25T09:49:33.204Z,1001.70
2023-04-25T09:50:33.259Z,1001.74
2023-04-25T09:51:33.279Z,1001.68
2023-04-25T09:52:33.462Z,1001.68
2023-04-25T09:53:33.497Z,1001.71
2023-04-25T09:54:33.553Z,1001.74
2023-04-25T09:55:33.580Z,1001.76
2023-04-25T09:56:33.722Z,1001.80
2023-04-25T09:57:33.772Z,1001.95
2023-04-25T09:58:34.248Z,1001.87
2023-04-25T09:59:33.940Z,1001.79
2023-04-25T10:00:33.977Z,1001.87
2023-04-25T10:01:34.087Z,1001.83
2023-04-25T10:02:34.158Z,1001.81
2023-04-25T10:03:34.335Z,1001.78
2023-04-25T10:04:34.329Z,1001.79
2023-04-25T10:05:34.297Z,1001.73
2023-04-25T10:06:34.317Z,1001.78
2023-04-25T10:07:34.329Z,1001.74
2023-04-25T10:08:34.472Z,1001.81
2023-04-25T10:09:34.519Z,1001.76
2023-04-25T10:10:34.554Z,1001.88
2023-04-25T10:11:34.572Z,1001.80
2023-04-25T10:12:35.109Z,1001.73
2023-04-25T10:13:34.808Z,1001.79
2023-04-25T10:14:34.858Z,1001.72
2023-04-25T10:15:35.972Z,1001.78
2023-04-25T10:16:34.959Z,1001.86
2023-04-25T10:17:35.052Z,1001.87
2023-04-25T10:18:35.081Z,1001.88
2023-04-25T10:19:35.131Z,1001.84
2023-04-25T10:20:35.164Z,1001.86
2023-04-25T10:21:35.240Z,1001.95
2023-04-25T10:22:35.300Z,1001.87
2023-04-25T10:23:35.384Z,1002.00
2023-04-25T10:24:35.433Z,1001.95
2023-04-25T10:25:35.538Z,1001.93
2023-04-25T10:26:35.567Z,1001.93
2023-04-25T10:27:35.615Z,1001.88
2023-04-25T10:28:35.692Z,1001.97
2023-04-25T10:29:35.745Z,1002.07
2023-04-25T10:30:35.831Z,1001.99
2023-04-25T10:31:36.007Z,1001.93
2023-04-25T10:32:35.922Z,1001.99
2023-04-25T10:33:35.972Z,1001.95
2023-04-25T10:34:36.014Z,1001.95
2023-04-25T10:35:36.095Z,1002.01
2023-04-25T10:36:36.158Z,1002.01
2023-04-25T10:37:37.049Z,1002.00
2023-04-25T10:38:36.331Z,1002.08
2023-04-25T10:39:36.374Z,1002.17
2023-04-25T10:40:36.441Z,1002.05
2023-04-25T10:41:36.468Z,1002.06
2023-04-25T10:42:36.685Z,1002.07
2023-04-25T10:43:36.727Z,1002.10
2023-04-25T10:44:36.793Z,1002.06
2023-04-25T10:45:36.841Z,1002.16
2023-04-25T10:46:36.951Z,1002.15
2023-04-25T10:47:37.002Z,1002.13
2023-04-25T10:48:37.035Z,1002.09
2023-04-25T10:49:37.112Z,1002.19
2023-04-25T10:50:37.151Z,1002.12
2023-04-25T10:51:54.497Z,1002.17
2023-04-25T10:52:38.357Z,1002.17
2023-04-25T10:53:37.435Z,1002.18
2023-04-25T10:54:37.585Z,1002.26
2023-04-25T10:55:37.807Z,1002.19
2023-04-25T10:56:37.799Z,1002.29
2023-04-25T10:57:37.858Z,1002.30
2023-04-25T10:58:38.032Z,1002.20
2023-04-25T10:59:38.116Z,1002.16
2023-04-25T11:00:53.188Z,1002.18
2023-04-25T11:01:39.288Z,1002.21
2023-04-25T11:02:38.572Z,1002.33
2023-04-25T11:03:38.578Z,1002.29
2023-04-25T11:04:38.936Z,1002.19
2023-04-25T11:05:51.123Z,1002.35
2023-04-25T11:06:39.737Z,1002.32
2023-04-25T11:07:38.781Z,1002.28
2023-04-25T11:08:38.963Z,1002.35
2023-04-25T11:09:46.070Z,1002.37
2023-04-25T11:10:39.123Z,1002.37
2023-04-25T11:11:39.176Z,1002.38
2023-04-25T11:12:39.256Z,1002.32
2023-04-25T11:13:39.326Z,1002.33
2023-04-25T11:15:39.647Z,1002.48
2023-04-25T11:16:39.747Z,1002.36
2023-04-25T11:17:39.935Z,1002.35
2023-04-25T11:18:40.016Z,1002.54
2023-04-25T11:19:40.132Z,1002.61
2023-04-25T11:20:40.248Z,1002.54
2023-04-25T11:21:40.338Z,1002.60
2023-04-25T11:22:40.414Z,1002.60
2023-04-25T11:23:40.495Z,1002.61
2023-04-25T11:24:40.545Z,1002.63
2023-04-25T11:25:40.639Z,1002.66
2023-04-25T11:26:40.702Z,1002.70
2023-04-25T11:27:40.823Z,1002.68
2023-04-25T11:28:40.893Z,1002.71
2023-04-25T11:29:40.955Z,1002.68
2023-04-25T11:30:41.076Z,1002.67
2023-04-25T11:31:41.221Z,1002.75
2023-04-25T11:32:41.248Z,1002.76
2023-04-25T11:33:41.317Z,1002.87
2023-04-25T11:34:41.410Z,1002.79
2023-04-25T11:35:41.490Z,1002.81
2023-04-25T11:36:41.734Z,1002.77
2023-04-25T11:37:41.711Z,1002.73
2023-04-25T11:38:41.789Z,1002.83
2023-04-25T11:39:41.857Z,1002.81
2023-04-25T11:40:41.971Z,1002.79
2023-04-25T11:41:42.327Z,1002.89
2023-04-25T11:42:42.137Z,1002.83
2023-04-25T11:43:43.465Z,1002.89
2023-04-25T11:44:42.332Z,1002.94
2023-04-25T11:45:42.469Z,1002.91
2023-04-25T11:46:42.504Z,1003.01
2023-04-25T11:47:42.601Z,1002.92
2023-04-25T11:48:42.673Z,1002.93
2023-04-25T11:49:42.773Z,1002.86
2023-04-25T11:50:42.874Z,1002.86
2023-04-25T11:51:43.063Z,1002.88
2023-04-25T11:52:43.060Z,1002.87
2023-04-25T11:53:43.148Z,1002.91
2023-04-25T11:54:43.248Z,1002.91
2023-04-25T11:55:43.323Z,1002.91
2023-04-25T11:56:43.447Z,1002.96
2023-04-25T11:57:43.665Z,1002.84
2023-04-25T11:58:43.577Z,1002.91
2023-04-25T11:59:43.653Z,1002.98
2023-04-25T12:00:50.467Z,1002.97
2023-04-25T12:01:44.816Z,1002.92
2023-04-25T12:02:44.035Z,1002.93
2023-04-25T12:03:44.590Z,1002.98
2023-04-25T12:04:44.394Z,1002.98
2023-04-25T12:05:44.534Z,1002.90
2023-04-25T12:06:44.434Z,1002.87
2023-04-25T12:07:44.370Z,1002.90
2023-04-25T12:08:44.439Z,1002.89
2023-04-25T12:09:44.503Z,1002.84
2023-04-25T12:10:44.656Z,1002.85
2023-04-25T12:11:44.767Z,1002.95
2023-04-25T12:12:44.809Z,1002.93
2023-04-25T12:13:44.883Z,1002.94
2023-04-25T12:14:45.053Z,1002.97
2023-04-25T12:15:45.290Z,1002.99
2023-04-25T12:16:45.212Z,1002.97
2023-04-25T12:17:45.312Z,1003.03
2023-04-25T12:18:45.380Z,1002.94
2023-04-25T12:19:45.418Z,1002.95